Flight Track Log - Related Links

Times and Time Zones

All times are in EST time to prevent confusion due to time zone crossing. See the G52618 flight status page for this flight to view local times or setup timezone preferences in your user account.

Time Position Orientation Groundspeed Altitude Reporting Facility
EST Latitude Longitude Course Direction KTS MPH feet Rate Location/Type
Mon 12:07:00 AM 23.8997 110.6333 308° West  Level Estimated
Mon 12:08:00 AM 23.9365 110.5819 308° West  Level Estimated
Mon 12:09:00 AM 23.9733 110.5304 308° West  Level Estimated
Mon 12:10:00 AM 24.0101 110.4790 308° West  Level Estimated
Mon 12:11:00 AM 24.0469 110.4275 308° West  Level Estimated
Mon 12:12:00 AM 24.0836 110.3759 308° West  Level Estimated
Mon 12:13:00 AM 24.1203 110.3243 308° West  Level Estimated
Mon 12:14:00 AM 24.1570 110.2728 308° West  Level Estimated
Mon 12:15:00 AM 24.1937 110.2211 308° West  Level Estimated
Mon 12:16:00 AM 24.2304 110.1695 308° West  Level Estimated
Mon 12:17:00 AM 24.2671 110.1178 308° West  Level Estimated
Mon 12:18:00 AM 24.3037 110.0661 308° West  Level Estimated
Mon 12:19:00 AM 24.3403 110.0144 308° West  Level Estimated
Mon 12:20:00 AM 24.3769 109.9626 308° West  Level Estimated
Mon 12:21:00 AM 24.4135 109.9108 308° West  Level Estimated
Mon 12:22:00 AM 24.4501 109.8589 308° West  Level Estimated
Mon 12:23:00 AM 24.4866 109.8071 308° West  Level Estimated
Mon 12:24:00 AM 24.5232 109.7552 308° West  Level Estimated
Mon 12:25:00 AM 24.5597 109.7033 308° West  Level Estimated
Mon 12:26:00 AM 24.5962 109.6513 308° West  Level Estimated
Mon 12:27:00 AM 24.6327 109.5993 308° West  Level Estimated
Mon 12:28:00 AM 24.6691 109.5473 308° West  Level Estimated
Mon 12:29:00 AM 24.7055 109.4953 308° West  Level Estimated
Mon 12:30:00 AM 24.7420 109.4432 308° West  Level Estimated
Mon 12:31:00 AM 24.7784 109.3911 308° West  Level Estimated
Mon 12:32:00 AM 24.8148 109.3390 308° West  Level Estimated
Mon 12:33:00 AM 24.8511 109.2868 308° West  Level Estimated
Mon 12:34:00 AM 24.8875 109.2346 308° West  Level Estimated
Mon 12:35:00 AM 24.9238 109.1824 307° West  Level Estimated
Mon 12:36:00 AM 24.9601 109.1301 307° West  Level Estimated
Mon 12:37:00 AM 24.9964 109.0778 307° West  Level Estimated
Mon 12:38:00 AM 25.0327 109.0255 307° West  Level Estimated
Mon 12:39:00 AM 25.0690 108.9731 307° West  Level Estimated
Mon 12:40:00 AM 25.1052 108.9208 307° West  Level Estimated
Mon 12:41:00 AM 25.1414 108.8683 307° West  Level Estimated
Mon 12:42:00 AM 25.1777 108.8159 307° West  Level Estimated
Mon 12:43:00 AM 25.2138 108.7634 307° West  Level Estimated
Mon 12:44:00 AM 25.2500 108.7109 307° West  Level Estimated
Mon 12:45:00 AM 25.2862 108.6584 307° West  Level Estimated
Mon 12:46:00 AM 25.3223 108.6058 307° West  Level Estimated
Mon 12:47:00 AM 25.3584 108.5532 307° West  Level Estimated
Mon 12:48:00 AM 25.3945 108.5006 307° West  Level Estimated
Mon 12:49:00 AM 25.4306 108.4479 307° West  Level Estimated
Mon 12:50:00 AM 25.4666 108.3952 307° West  Level Estimated
Mon 12:51:00 AM 25.5027 108.3425 307° West  Level Estimated
Mon 12:52:00 AM 25.5387 108.2897 307° West  Level Estimated
Mon 12:53:00 AM 25.5747 108.2369 307° West  Level Estimated
Mon 12:54:00 AM 25.6107 108.1841 307° West  Level Estimated
Mon 12:55:00 AM 25.6466 108.1312 307° West  Level Estimated
Mon 12:56:00 AM 25.6826 108.0783 307° West  Level Estimated
Mon 12:57:00 AM 25.7185 108.0254 307° West  Level Estimated
Mon 12:58:00 AM 25.7544 107.9725 307° West  Level Estimated
Mon 12:59:00 AM 25.7903 107.9195 307° West  Level Estimated
Mon 01:00:00 AM 25.8262 107.8665 307° West  Level Estimated
Mon 01:01:00 AM 25.8620 107.8134 307° West  Level Estimated
Mon 01:02:00 AM 25.8978 107.7604 307° West  Level Estimated
Mon 01:03:00 AM 25.9336 107.7073 307° West  Level Estimated
Mon 01:04:00 AM 25.9694 107.6541 307° West  Level Estimated
Mon 01:05:00 AM 26.0052 107.6009 307° West  Level Estimated
Mon 01:06:00 AM 26.0410 107.5477 307° West  Level Estimated
Mon 01:07:00 AM 26.0767 107.4945 307° West  Level Estimated
Mon 01:08:00 AM 26.1124 107.4412 307° West  Level Estimated
Mon 01:09:00 AM 26.1481 107.3879 307° West  Level Estimated
Mon 01:10:00 AM 26.1838 107.3346 307° West  Level Estimated
Mon 01:11:00 AM 26.2194 107.2812 307° West  Level Estimated
Mon 01:12:00 AM 26.2550 107.2278 307° West  Level Estimated
Mon 01:13:00 AM 26.2906 107.1743 307° West  Level Estimated
Mon 01:14:00 AM 26.3262 107.1209 307° West  Level Estimated

Login

Don't have an account? Register now (free) for customized features, flight alerts, and more!